Time;durP1;ratioP1;P1;durP2;ratioP2;P2;SDS_P1;SDS_P2;PMS_P1;PMS_P2;Temp;Humidity;BMP_temperature;BMP_pressure;BME280_temperature;BME280_humidity;BME280_pressure;Samples;Min_cycle;Max_cycle;Signal;HPM_P1;HPM_P2
2022/05/20 00:02:18;;;;;;;51.13;38.60;;;16.00;97.50;;;;;;5073681;28;20175;-66
2022/05/20 00:04:43;;;;;;;49.50;35.67;;;16.00;96.60;;;;;;5073798;28;20180;-66
2022/05/20 00:07:09;;;;;;;45.47;35.70;;;16.00;97.90;;;;;;5073649;28;20188;-65
2022/05/20 00:09:36;;;;;;;48.07;36.20;;;16.00;99.40;;;;;;5073620;28;20203;-65
2022/05/20 00:12:04;;;;;;;43.07;35.07;;;15.90;99.90;;;;;;5072484;28;20177;-66
2022/05/20 00:14:31;;;;;;;47.00;35.57;;;15.80;99.90;;;;;;5073070;28;20208;-65
2022/05/20 00:16:56;;;;;;;47.27;35.30;;;15.70;99.90;;;;;;5073563;28;20175;-66
2022/05/20 00:19:22;;;;;;;43.87;34.40;;;15.70;99.90;;;;;;5073612;28;20169;-66
2022/05/20 00:21:47;;;;;;;43.67;33.73;;;15.70;99.90;;;;;;5073465;28;20636;-66
2022/05/20 00:24:13;;;;;;;39.63;32.27;;;15.70;99.90;;;;;;5073471;28;20168;-64
2022/05/20 00:26:39;;;;;;;43.70;33.60;;;15.60;99.90;;;;;;5073306;28;20222;-65
2022/05/20 00:29:04;;;;;;;40.67;33.17;;;15.60;99.90;;;;;;5072938;28;20667;-65
2022/05/20 00:31:30;;;;;;;44.50;32.83;;;15.60;99.90;;;;;;5073367;28;20263;-65
2022/05/20 00:33:55;;;;;;;42.53;33.80;;;15.60;99.90;;;;;;5073222;28;20729;-67
2022/05/20 00:36:21;;;;;;;44.00;35.07;;;15.60;99.90;;;;;;5073180;28;20524;-65
2022/05/20 00:38:47;;;;;;;45.57;33.87;;;15.60;99.90;;;;;;5072993;28;20196;-65
2022/05/20 00:41:13;;;;;;;43.53;32.50;;;15.60;99.90;;;;;;5073122;28;20624;-65
2022/05/20 00:43:50;;;;;;;42.37;32.80;;;15.60;99.90;;;;;;5072469;28;20176;-66
2022/05/20 00:46:22;;;;;;;47.20;35.87;;;15.50;99.90;;;;;;5073344;28;20218;-66
2022/05/20 00:48:54;;;;;;;43.50;34.83;;;15.50;99.90;;;;;;5073233;28;20169;-66
2022/05/20 00:51:25;;;;;;;43.47;33.63;;;15.40;99.90;;;;;;5073060;28;20194;-65
2022/05/20 00:53:59;;;;;;;43.23;33.57;;;15.50;99.90;;;;;;5073179;28;20204;-65
2022/05/20 00:56:37;;;;;;;46.50;34.53;;;15.40;99.90;;;;;;5073268;28;20172;-65
2022/05/20 00:59:06;;;;;;;46.37;34.43;;;15.40;99.90;;;;;;5072984;28;20172;-65
2022/05/20 01:01:34;;;;;;;47.13;36.93;;;15.40;99.90;;;;;;5072827;28;20224;-66
2022/05/20 01:04:01;;;;;;;61.93;43.80;;;15.40;99.90;;;;;;5072997;28;20213;-65
2022/05/20 01:06:27;;;;;;;55.30;40.70;;;15.40;99.90;;;;;;5072793;28;20195;-65
2022/05/20 01:08:52;;;;;;;43.63;35.23;;;15.40;99.90;;;;;;5073251;28;20161;-65
2022/05/20 01:11:18;;;;;;;46.73;34.57;;;15.40;99.90;;;;;;5074313;28;20258;-65
2022/05/20 01:13:47;;;;;;;43.70;35.83;;;15.30;99.90;;;;;;5076790;28;20200;-66
2022/05/20 01:16:14;;;;;;;45.63;36.73;;;15.30;99.90;;;;;;5076989;28;20624;-66
2022/05/20 01:18:43;;;;;;;43.43;34.20;;;15.30;99.90;;;;;;5076883;28;20168;-66
2022/05/20 01:21:09;;;;;;;44.33;34.73;;;15.30;99.90;;;;;;5076836;28;20643;-66
2022/05/20 01:23:36;;;;;;;44.57;34.27;;;15.30;99.90;;;;;;5077231;28;20214;-65
2022/05/20 01:26:03;;;;;;;43.63;34.50;;;15.40;99.90;;;;;;5076934;28;20164;-65
2022/05/20 01:28:30;;;;;;;45.77;34.60;;;15.40;99.90;;;;;;5076449;28;20195;-65
2022/05/20 01:31:02;;;;;;;41.77;34.87;;;15.40;99.90;;;;;;5076769;28;20169;-65
2022/05/20 01:33:33;;;;;;;43.63;33.43;;;15.30;99.90;;;;;;5076382;28;20774;-66
2022/05/20 01:36:01;;;;;;;38.80;32.23;;;15.30;99.90;;;;;;5076765;28;20203;-66
2022/05/20 01:38:27;;;;;;;42.53;32.93;;;15.40;99.90;;;;;;5076594;28;20219;-66
2022/05/20 01:40:56;;;;;;;40.17;33.23;;;15.40;99.90;;;;;;5076102;28;20582;-66
2022/05/20 01:43:55;;;;;;;39.13;32.10;;;15.40;99.90;;;;;;5076417;28;20638;-65
2022/05/20 01:46:57;;;;;;;39.67;32.20;;;15.40;99.90;;;;;;5076655;28;20195;-66
2022/05/20 01:49:56;;;;;;;45.13;33.60;;;15.30;99.90;;;;;;5066986;28;20349;-66
2022/05/20 01:52:37;;;;;;;48.20;34.90;;;15.30;99.90;;;;;;5076315;28;20177;-65
2022/05/20 01:55:17;;;;;;;44.40;34.10;;;15.20;99.90;;;;;;5076592;28;20204;-65
2022/05/20 01:58:21;;;;;;;41.07;32.77;;;15.20;99.90;;;;;;5076134;28;20636;-66
2022/05/20 02:00:49;;;;;;;42.40;33.10;;;15.20;99.90;;;;;;5075572;28;20223;-65
2022/05/20 02:03:23;;;;;;;43.80;33.27;;;15.20;99.90;;;;;;5075889;28;20160;-65
2022/05/20 02:06:16;;;;;;;42.50;30.03;;;15.20;99.90;;;;;;5075773;28;20201;-65
2022/05/20 02:08:56;;;;;;;40.47;31.27;;;15.20;99.90;;;;;;5070739;28;20226;-66
2022/05/20 02:11:39;;;;;;;43.33;33.00;;;15.20;99.90;;;;;;5075654;28;20226;-65
2022/05/20 02:14:14;;;;;;;44.93;33.00;;;15.20;99.90;;;;;;5075745;28;20687;-64
2022/05/20 02:16:47;;;;;;;41.60;33.07;;;15.20;99.90;;;;;;5075952;28;20175;-67
2022/05/20 02:19:21;;;;;;;40.73;32.97;;;15.30;99.90;;;;;;5075901;28;20171;-65
2022/05/20 02:21:52;;;;;;;45.53;33.93;;;15.30;99.90;;;;;;5075390;28;20255;-65
2022/05/20 02:24:22;;;;;;;44.50;33.20;;;15.30;99.90;;;;;;5075735;28;20173;-65
2022/05/20 02:26:53;;;;;;;45.77;34.07;;;15.30;99.90;;;;;;5075725;28;20168;-65
2022/05/20 02:29:26;;;;;;;46.40;36.00;;;15.30;99.90;;;;;;5075899;28;20267;-65
2022/05/20 02:32:10;;;;;;;44.90;34.60;;;15.30;99.90;;;;;;5075628;28;20211;-66
2022/05/20 02:34:36;;;;;;;50.47;38.07;;;15.30;99.90;;;;;;5075539;28;20212;-65
2022/05/20 02:37:27;;;;;;;46.60;34.33;;;15.30;99.90;;;;;;5075357;28;20624;-65
2022/05/20 02:39:53;;;;;;;48.90;34.77;;;15.30;99.90;;;;;;5074787;28;20176;-66
2022/05/20 02:42:19;;;;;;;43.93;33.90;;;15.30;99.90;;;;;;5075315;28;20263;-65
2022/05/20 02:44:45;;;;;;;45.77;34.93;;;15.30;99.90;;;;;;5075457;28;20255;-65
2022/05/20 02:47:11;;;;;;;40.43;31.90;;;15.30;99.90;;;;;;5075724;28;20628;-65
2022/05/20 02:49:37;;;;;;;45.17;34.57;;;15.30;99.90;;;;;;5075221;28;20210;-65
2022/05/20 02:52:05;;;;;;;45.53;34.17;;;15.30;99.90;;;;;;5075306;28;20234;-64
2022/05/20 02:54:30;;;;;;;45.70;34.53;;;15.30;99.90;;;;;;5074691;28;20687;-64
2022/05/20 02:56:56;;;;;;;45.00;35.47;;;15.30;99.90;;;;;;5074919;28;20225;-64
2022/05/20 03:04:50;;;;;;;50.67;36.53;;;15.10;99.90;;;;;;5075245;28;20259;-66
2022/05/20 03:07:15;;;;;;;48.57;37.77;;;15.20;99.90;;;;;;5074667;28;20220;-65
2022/05/20 03:09:41;;;;;;;50.97;39.03;;;15.10;99.90;;;;;;5074433;28;20667;-66
2022/05/20 03:12:07;;;;;;;55.40;38.53;;;15.10;99.90;;;;;;5074804;28;20176;-66
2022/05/20 03:14:34;;;;;;;47.70;38.27;;;15.10;99.90;;;;;;5074362;28;20289;-66
2022/05/20 03:17:01;;;;;;;54.63;39.43;;;15.20;99.90;;;;;;5074656;28;20177;-66
2022/05/20 03:19:30;;;;;;;50.53;36.50;;;15.20;99.90;;;;;;5074483;28;20215;-66
2022/05/20 03:22:01;;;;;;;49.37;37.93;;;15.20;99.90;;;;;;5074051;28;20161;-65
2022/05/20 03:24:27;;;;;;;52.20;38.37;;;15.30;99.90;;;;;;5074221;28;20173;-66
2022/05/20 03:26:53;;;;;;;50.93;37.30;;;15.30;99.90;;;;;;5074476;28;20176;-66
2022/05/20 03:29:19;;;;;;;53.80;38.73;;;15.20;99.90;;;;;;5074275;28;20177;-66
2022/05/20 03:31:45;;;;;;;48.90;36.47;;;15.20;99.90;;;;;;5074282;28;20173;-66
2022/05/20 03:34:11;;;;;;;51.03;36.20;;;15.20;99.90;;;;;;5073180;28;20212;-66
2022/05/20 03:36:42;;;;;;;49.90;37.60;;;15.30;99.90;;;;;;5074017;28;20169;-66
2022/05/20 03:39:09;;;;;;;51.97;36.73;;;15.40;99.90;;;;;;5073563;28;20294;-66
2022/05/20 03:41:37;;;;;;;47.63;35.77;;;15.50;99.90;;;;;;5073620;28;20164;-65
2022/05/20 03:44:05;;;;;;;48.97;36.07;;;15.40;99.90;;;;;;5073993;28;20187;-66
2022/05/20 03:46:31;;;;;;;50.70;37.00;;;15.40;99.90;;;;;;5073996;28;20179;-65
2022/05/20 03:49:00;;;;;;;52.63;37.40;;;15.40;99.90;;;;;;5073598;28;20173;-66
2022/05/20 03:51:26;;;;;;;52.60;38.17;;;15.30;99.90;;;;;;5073292;28;20168;-65
2022/05/20 03:53:51;;;;;;;51.33;37.63;;;15.40;99.90;;;;;;5073302;28;20210;-65
2022/05/20 03:56:17;;;;;;;52.20;38.47;;;15.50;99.90;;;;;;5073658;28;20173;-65
2022/05/20 03:58:42;;;;;;;49.07;38.73;;;15.50;99.90;;;;;;5073395;28;20203;-65
2022/05/20 04:03:55;;;;;;;51.37;37.00;;;15.30;99.90;;;;;;5073442;28;20547;-64
2022/05/20 04:06:20;;;;;;;54.63;40.13;;;15.20;99.90;;;;;;5073013;28;20197;-64
2022/05/20 04:08:46;;;;;;;58.00;40.20;;;15.20;99.90;;;;;;5073406;28;20184;-66
2022/05/20 04:11:13;;;;;;;49.67;38.77;;;15.30;99.90;;;;;;5072819;28;20165;-66
2022/05/20 04:13:43;;;;;;;48.47;38.63;;;15.30;99.90;;;;;;5073395;28;20196;-66
2022/05/20 04:16:11;;;;;;;50.83;37.83;;;15.50;99.90;;;;;;5073127;28;20622;-66
2022/05/20 04:18:38;;;;;;;48.23;37.43;;;15.60;99.90;;;;;;5073321;28;20169;-64
2022/05/20 04:21:04;;;;;;;47.77;37.83;;;15.80;99.90;;;;;;5073190;28;20188;-65
2022/05/20 04:23:31;;;;;;;47.47;36.70;;;16.00;99.90;;;;;;5072686;28;20176;-65
2022/05/20 04:25:57;;;;;;;45.97;37.40;;;16.10;99.90;;;;;;5072890;28;20691;-64
2022/05/20 04:28:22;;;;;;;45.90;36.07;;;16.30;99.90;;;;;;5072786;28;20192;-67
2022/05/20 04:30:50;;;;;;;51.53;38.03;;;16.40;97.10;;;;;;5072945;28;20569;-65
2022/05/20 04:33:16;;;;;;;47.17;37.80;;;16.30;96.20;;;;;;5072657;28;20587;-64
2022/05/20 04:35:42;;;;;;;49.30;38.40;;;16.30;97.80;;;;;;5072984;28;20176;-66
2022/05/20 04:38:07;;;;;;;44.27;36.40;;;16.20;98.70;;;;;;5072792;28;20215;-66
2022/05/20 04:40:33;;;;;;;51.80;37.33;;;16.30;99.60;;;;;;5072671;28;20624;-65
2022/05/20 04:48:26;;;;;;;47.57;36.40;;;16.40;99.90;;;;;;5072947;28;20532;-65
2022/05/20 04:50:52;;;;;;;46.83;35.77;;;17.00;85.50;;;;;;5072177;28;20165;-66
2022/05/20 04:56:02;;;;;;;43.33;35.80;;;17.60;49.10;;;;;;5073190;28;20234;-66
2022/05/20 04:58:28;;;;;;;48.07;36.43;;;17.80;46.50;;;;;;5072154;28;20172;-65
2022/05/20 05:00:58;;;;;;;45.07;36.57;;;17.40;46.30;;;;;;5072406;28;20235;-66
2022/05/20 05:03:23;;;;;;;46.67;37.20;;;16.90;72.80;;;;;;5072648;28;20181;-65
2022/05/20 05:05:49;;;;;;;49.80;37.90;;;16.60;88.10;;;;;;5071737;28;20294;-66
2022/05/20 05:08:16;;;;;;;50.50;37.50;;;16.50;94.30;;;;;;5071905;28;20177;-66
2022/05/20 05:10:43;;;;;;;51.53;39.63;;;16.10;99.90;;;;;;5070697;28;20559;-66
2022/05/20 05:13:09;;;;;;;49.33;40.23;;;16.00;99.90;;;;;;5072471;28;20172;-66
2022/05/20 05:15:36;;;;;;;54.63;39.53;;;16.30;99.90;;;;;;5071738;28;20180;-65
2022/05/20 05:18:12;;;;;;;44.17;37.00;;;16.70;99.90;;;;;;5071762;28;20172;-66
2022/05/20 05:20:50;;;;;;;42.20;36.13;;;17.50;74.10;;;;;;5071803;28;20164;-66
2022/05/20 05:23:16;;;;;;;40.73;34.13;;;18.30;29.90;;;;;;5072439;28;20314;-66
2022/05/20 05:25:43;;;;;;;41.30;34.00;;;18.10;28.60;;;;;;5072045;28;20200;-66
2022/05/20 05:28:09;;;;;;;40.90;33.37;;;19.20;14.90;;;;;;5070954;28;20263;-66
2022/05/20 05:30:35;;;;;;;36.75;32.03;;;20.30;1.00;;;;;;5072156;28;20211;-67
2022/05/20 05:33:01;;;;;;;33.55;29.90;;;21.10;1.00;;;;;;5071592;28;20544;-67
2022/05/20 05:35:30;;;;;;;37.60;31.48;;;20.50;1.00;;;;;;5071301;28;20212;-64
2022/05/20 05:37:56;;;;;;;34.35;28.10;;;19.40;1.00;;;;;;5072248;28;20509;-65
2022/05/20 05:40:29;;;;;;;37.63;31.35;;;18.80;1.00;;;;;;5071528;28;20183;-67
2022/05/20 05:42:55;;;;;;;39.60;31.57;;;18.90;1.00;;;;;;5071486;28;20169;-67
2022/05/20 05:45:23;;;;;;;35.10;30.43;;;18.90;1.00;;;;;;5069584;28;20165;-66
2022/05/20 05:47:57;;;;;;;39.60;32.80;;;19.10;1.00;;;;;;5070823;28;20172;-69
2022/05/20 05:50:23;;;;;;;36.15;30.05;;;19.60;1.00;;;;;;5070484;28;20169;-66
2022/05/20 05:53:00;;;;;;;35.97;32.08;;;19.20;1.00;;;;;;5071271;28;20619;-67
2022/05/20 05:55:26;;;;;;;37.53;30.50;;;19.10;1.00;;;;;;5071073;28;20200;-68
2022/05/20 05:57:52;;;;;;;33.33;29.05;;;19.50;1.00;;;;;;5073496;28;20172;-67
2022/05/20 06:00:19;;;;;;;35.13;29.15;;;20.00;1.00;;;;;;5074778;28;20225;-66
2022/05/20 06:02:44;;;;;;;33.15;29.38;;;20.60;1.00;;;;;;5074253;28;20191;-67
2022/05/20 06:05:10;;;;;;;32.70;28.85;;;21.20;1.00;;;;;;5074814;28;20581;-67
2022/05/20 06:07:35;;;;;;;31.65;28.42;;;21.10;1.00;;;;;;5073804;28;20195;-68
2022/05/20 06:10:01;;;;;;;41.00;29.15;;;20.80;1.00;;;;;;5073588;28;20179;-68
2022/05/20 06:12:28;;;;;;;34.55;30.15;;;19.80;1.00;;;;;;5074751;28;20260;-67
2022/05/20 06:14:54;;;;;;;39.03;31.17;;;19.70;1.00;;;;;;5074682;28;20222;-67
2022/05/20 06:17:19;;;;;;;37.38;30.60;;;19.50;1.00;;;;;;5073727;28;20180;-65
2022/05/20 06:19:45;;;;;;;41.28;32.22;;;19.10;1.00;;;;;;5074125;28;20173;-67
2022/05/20 06:22:11;;;;;;;38.42;31.70;;;19.70;1.00;;;;;;5075131;28;20160;-66
2022/05/20 06:24:37;;;;;;;33.70;29.52;;;20.70;1.00;;;;;;5074045;28;20689;-67
2022/05/20 06:27:03;;;;;;;36.60;31.02;;;21.60;1.00;;;;;;5073034;28;20614;-67
2022/05/20 06:29:28;;;;;;;35.30;29.20;;;22.50;1.00;;;;;;5074027;28;20293;-67
2022/05/20 06:31:54;;;;;;;31.77;28.45;;;23.30;99.90;;;;;;5073914;28;20252;-67
2022/05/20 06:34:20;;;;;;;31.63;27.55;;;24.30;99.90;;;;;;5074165;28;20212;-66
2022/05/20 06:42:24;;;;;;;33.97;29.67;;;24.70;1.00;;;;;;5032911;28;20241;-66
2022/05/20 06:44:50;;;;;;;34.45;29.65;;;22.90;99.90;;;;;;5032011;28;20684;-66
2022/05/20 06:47:16;;;;;;;36.33;30.10;;;23.30;99.90;;;;;;5031363;28;20265;-67
2022/05/20 06:49:41;;;;;;;33.53;29.45;;;23.10;99.90;;;;;;5032382;28;20253;-66
2022/05/20 06:52:07;;;;;;;35.38;31.20;;;22.30;1.00;;;;;;5031425;28;20190;-67
2022/05/20 06:54:32;;;;;;;35.08;30.77;;;22.10;1.00;;;;;;5031142;28;20280;-67
2022/05/20 06:56:58;;;;;;;35.13;30.67;;;22.70;1.00;;;;;;5032599;28;20174;-66
2022/05/20 06:59:23;;;;;;;35.47;29.40;;;23.30;99.90;;;;;;5032210;28;20653;-67
2022/05/20 07:01:49;;;;;;;38.78;31.45;;;23.30;99.90;;;;;;5014661;28;20228;-67
2022/05/20 07:04:15;;;;;;;33.85;30.13;;;22.60;1.00;;;;;;5032180;28;20667;-67
2022/05/20 07:06:41;;;;;;;33.47;29.85;;;22.10;1.00;;;;;;5031749;28;20277;-67
2022/05/20 07:09:06;;;;;;;35.65;30.75;;;22.50;1.00;;;;;;5031713;28;20209;-67
2022/05/20 07:11:32;;;;;;;35.08;29.90;;;22.60;1.00;;;;;;5031675;28;20595;-66
2022/05/20 07:13:58;;;;;;;36.15;29.63;;;22.30;1.00;;;;;;5031479;28;20296;-68
2022/05/20 07:16:29;;;;;;;33.28;27.80;;;22.60;1.00;;;;;;5032117;28;20185;-66
2022/05/20 07:18:55;;;;;;;32.17;27.92;;;23.00;99.90;;;;;;5055148;28;20187;-67
2022/05/20 07:21:21;;;;;;;32.38;28.15;;;23.40;99.90;;;;;;5073657;28;20632;-67
2022/05/20 07:23:47;;;;;;;31.60;28.13;;;23.50;1.00;;;;;;5074157;28;20177;-66
2022/05/20 07:26:18;;;;;;;32.28;28.80;;;23.30;99.90;;;;;;5073512;28;20189;-66
2022/05/20 07:28:44;;;;;;;33.60;27.63;;;22.50;1.00;;;;;;5073878;28;20188;-66
2022/05/20 07:31:10;;;;;;;32.97;27.38;;;21.50;1.00;;;;;;5073340;28;20165;-66
2022/05/20 07:33:37;;;;;;;33.03;28.33;;;21.20;1.00;;;;;;5073510;28;20203;-68
2022/05/20 07:36:04;;;;;;;35.67;28.10;;;21.00;1.00;;;;;;5074256;28;20177;-66
2022/05/20 07:38:29;;;;;;;36.03;29.02;;;20.50;1.00;;;;;;5073890;28;20176;-66
2022/05/20 07:40:56;;;;;;;38.67;30.00;;;20.20;1.00;;;;;;5072855;28;20169;-67
2022/05/20 07:43:22;;;;;;;37.92;29.50;;;20.10;1.00;;;;;;5073277;28;20256;-67
2022/05/20 07:45:48;;;;;;;35.33;30.42;;;20.20;1.00;;;;;;5073773;28;20200;-66
2022/05/20 07:48:14;;;;;;;37.42;29.92;;;20.40;1.00;;;;;;5073665;28;20161;-67
2022/05/20 07:50:44;;;;;;;37.95;30.13;;;20.20;1.00;;;;;;5071870;28;20183;-67
2022/05/20 07:53:23;;;;;;;35.70;29.42;;;20.50;1.00;;;;;;5073522;28;20638;-67
2022/05/20 07:55:57;;;;;;;38.92;30.33;;;20.70;1.00;;;;;;5073584;28;20223;-64
2022/05/20 07:58:33;;;;;;;37.88;30.85;;;20.20;1.00;;;;;;5072856;28;20176;-66
2022/05/20 08:00:59;;;;;;;35.95;30.52;;;20.10;1.00;;;;;;5072586;28;20255;-66
2022/05/20 08:06:16;;;;;;;38.45;31.15;;;20.90;1.00;;;;;;5072359;28;20274;-65
2022/05/20 08:08:43;;;;;;;40.88;31.27;;;21.20;1.00;;;;;;5071842;28;20554;-65
2022/05/20 08:11:09;;;;;;;35.80;29.80;;;21.20;1.00;;;;;;5073100;28;20192;-65
2022/05/20 08:13:34;;;;;;;35.17;29.85;;;21.40;1.00;;;;;;5072784;28;20205;-68
2022/05/20 08:16:00;;;;;;;38.17;29.80;;;21.80;1.00;;;;;;5072875;28;20516;-67
2022/05/20 08:18:26;;;;;;;36.28;29.20;;;22.40;1.00;;;;;;5072889;28;20173;-68
2022/05/20 08:20:52;;;;;;;31.15;27.83;;;23.10;1.00;;;;;;5072494;28;20183;-68
2022/05/20 08:23:18;;;;;;;35.05;28.08;;;24.10;91.40;;;;;;5073109;28;20647;-67
2022/05/20 08:25:44;;;;;;;35.38;29.23;;;24.60;1.00;;;;;;5073201;28;20173;-66
2022/05/20 08:28:10;;;;;;;32.78;29.25;;;23.80;99.90;;;;;;5072113;28;20184;-66
2022/05/20 08:30:35;;;;;;;31.90;28.58;;;23.80;99.90;;;;;;5073031;28;20176;-67
2022/05/20 08:33:01;;;;;;;35.42;29.20;;;23.40;1.00;;;;;;5072221;28;20625;-67
2022/05/20 08:35:27;;;;;;;33.90;30.20;;;23.80;99.90;;;;;;5057893;28;20581;-67
2022/05/20 08:37:53;;;;;;;39.53;32.72;;;23.90;99.90;;;;;;5070043;28;20179;-68
2022/05/20 08:40:24;;;;;;;37.65;32.40;;;23.40;1.00;;;;;;5068597;28;20180;-67
2022/05/20 08:42:53;;;;;;;35.53;31.58;;;22.20;1.00;;;;;;5052147;28;20178;-67
2022/05/20 08:45:23;;;;;;;45.95;34.03;;;21.50;1.00;;;;;;5052428;28;20286;-67
2022/05/20 08:47:51;;;;;;;37.72;31.40;;;21.10;1.00;;;;;;5052153;28;20610;-68
2022/05/20 08:50:24;;;;;;;36.78;32.78;;;21.50;1.00;;;;;;5056797;28;20239;-67
2022/05/20 08:52:53;;;;;;;38.55;33.00;;;21.70;1.00;;;;;;5058878;28;20264;-67
2022/05/20 08:55:19;;;;;;;37.83;32.63;;;21.50;1.00;;;;;;5071547;28;20216;-67
2022/05/20 08:58:00;;;;;;;42.38;35.28;;;21.30;1.00;;;;;;5071934;28;20172;-67
2022/05/20 09:00:27;;;;;;;40.78;33.55;;;21.00;1.00;;;;;;5072766;28;20220;-67
2022/05/20 09:02:53;;;;;;;46.72;35.35;;;21.10;1.00;;;;;;5071822;28;20191;-66
2022/05/20 09:05:33;;;;;;;42.20;33.95;;;21.00;1.00;;;;;;5072142;28;20204;-65
2022/05/20 09:08:14;;;;;;;45.28;34.65;;;20.90;1.00;;;;;;5071827;28;20176;-66
2022/05/20 09:10:53;;;;;;;42.55;34.83;;;20.70;8.60;;;;;;5071839;28;20183;-67
2022/05/20 09:16:19;;;;;;;43.85;33.97;;;20.70;10.20;;;;;;5072739;28;20183;-67
2022/05/20 09:18:48;;;;;;;42.05;33.88;;;21.10;3.90;;;;;;5071989;28;20161;-68
2022/05/20 09:21:38;;;;;;;42.28;33.78;;;21.30;1.00;;;;;;5070909;28;20180;-67
2022/05/20 09:24:07;;;;;;;41.25;31.70;;;21.40;1.00;;;;;;5072059;28;20175;-67
2022/05/20 09:26:38;;;;;;;38.33;31.80;;;21.60;1.00;;;;;;5071381;28;20172;-67
2022/05/20 09:29:14;;;;;;;37.33;30.08;;;21.50;1.00;;;;;;5065539;28;20173;-67
2022/05/20 09:31:49;;;;;;;37.45;29.45;;;21.40;1.00;;;;;;5051954;28;20200;-67
2022/05/20 09:34:30;;;;;;;37.35;31.65;;;21.30;1.00;;;;;;5056136;28;20207;-67
2022/05/20 09:37:11;;;;;;;36.35;30.95;;;20.90;11.60;;;;;;5056295;28;20165;-67
2022/05/20 09:39:41;;;;;;;42.80;33.80;;;20.70;20.80;;;;;;5055248;28;20165;-67
2022/05/20 09:42:18;;;;;;;40.15;32.10;;;20.80;22.00;;;;;;5055498;28;20162;-67
2022/05/20 09:44:47;;;;;;;44.58;32.30;;;20.50;28.70;;;;;;5056266;28;20177;-67
2022/05/20 09:47:20;;;;;;;38.13;32.45;;;20.30;40.50;;;;;;5054693;28;20762;-68
2022/05/20 09:49:57;;;;;;;44.85;33.85;;;20.30;43.10;;;;;;5059081;28;20251;-68
2022/05/20 09:53:01;;;;;;;40.95;33.13;;;20.40;38.90;;;;;;5058323;28;20318;-68
2022/05/20 09:55:31;;;;;;;37.67;32.63;;;20.50;39.70;;;;;;5032736;28;20221;-67
2022/05/20 09:58:12;;;;;;;41.00;32.72;;;20.70;37.60;;;;;;5042582;28;20181;-66
2022/05/20 10:00:41;;;;;;;40.10;33.08;;;20.70;30.00;;;;;;5051436;28;20279;-65
2022/05/20 10:03:11;;;;;;;39.33;32.90;;;20.80;26.80;;;;;;5053342;28;20169;-67
2022/05/20 10:05:42;;;;;;;39.58;32.60;;;20.90;24.60;;;;;;5052936;28;20692;-67
2022/05/20 10:08:44;;;;;;;41.47;35.05;;;21.00;22.40;;;;;;5052955;28;20169;-67
2022/05/20 10:11:24;;;;;;;43.10;34.95;;;20.60;33.30;;;;;;5036420;28;20169;-66
2022/05/20 10:13:56;;;;;;;41.45;33.50;;;20.50;40.80;;;;;;5050653;28;20208;-67
2022/05/20 10:16:49;;;;;;;41.83;34.33;;;20.70;41.20;;;;;;5053042;28;20173;-66
2022/05/20 10:19:39;;;;;;;47.20;36.10;;;20.90;30.00;;;;;;5053429;28;20243;-66
2022/05/20 10:22:43;;;;;;;46.17;34.35;;;21.00;27.10;;;;;;5052893;28;20169;-67
2022/05/20 10:25:17;;;;;;;45.95;34.45;;;21.20;25.70;;;;;;5035861;28;20319;-67
2022/05/20 10:27:58;;;;;;;40.60;33.50;;;21.50;17.50;;;;;;5053265;28;20253;-66
2022/05/20 10:33:38;;;;;;;39.83;32.60;;;21.80;9.70;;;;;;5054694;28;20226;-66
2022/05/20 10:36:19;;;;;;;42.30;33.90;;;21.70;9.10;;;;;;5054408;28;20221;-66
2022/05/20 10:38:49;;;;;;;39.83;33.88;;;21.90;3.40;;;;;;5054703;28;20212;-67
2022/05/20 10:41:44;;;;;;;40.45;34.30;;;22.00;6.70;;;;;;5055144;28;20165;-67
2022/05/20 10:50:35;;;;;;;40.85;34.38;;;21.40;30.10;;;;;;5043681;28;20701;-66
2022/05/20 10:53:37;;;;;;;41.28;34.65;;;21.40;36.80;;;;;;5054375;28;20181;-67
2022/05/20 10:56:15;;;;;;;42.65;35.05;;;21.30;48.50;;;;;;5054272;28;20187;-66
2022/05/20 10:58:59;;;;;;;41.83;33.92;;;21.10;66.30;;;;;;5053212;28;20227;-68
2022/05/20 11:01:49;;;;;;;40.83;34.33;;;20.90;65.40;;;;;;5063177;28;20235;-67
2022/05/20 11:04:24;;;;;;;45.30;34.67;;;20.60;88.70;;;;;;5073050;28;20272;-66
2022/05/20 11:06:59;;;;;;;46.17;36.45;;;20.50;95.70;;;;;;5073952;28;20491;-66
2022/05/20 11:09:30;;;;;;;47.88;38.65;;;20.30;99.90;;;;;;5073426;28;20229;-67
2022/05/20 11:12:01;;;;;;;45.42;37.67;;;20.30;99.90;;;;;;5073231;28;20169;-66
2022/05/20 11:14:59;;;;;;;50.17;38.15;;;20.20;99.90;;;;;;5074465;28;20209;-67
2022/05/20 11:17:30;;;;;;;49.05;41.15;;;20.00;99.90;;;;;;5074155;28;20161;-68
2022/05/20 11:20:10;;;;;;;55.65;41.80;;;20.00;99.90;;;;;;5055453;28;20173;-67
2022/05/20 11:23:00;;;;;;;54.43;40.67;;;19.90;99.90;;;;;;5073364;28;20168;-67
2022/05/20 11:25:45;;;;;;;58.13;42.80;;;19.70;99.90;;;;;;5073090;28;20658;-68
2022/05/20 11:28:33;;;;;;;49.07;36.63;;;19.60;99.90;;;;;;5073399;28;20168;-67
2022/05/20 11:31:27;;;;;;;56.07;38.03;;;19.40;99.90;;;;;;5073231;28;20517;-66
2022/05/20 11:34:12;;;;;;;43.00;33.97;;;19.50;99.90;;;;;;5071874;28;20736;-67
2022/05/20 11:37:14;;;;;;;39.50;32.60;;;19.60;99.90;;;;;;5071677;28;20640;-66
2022/05/20 11:40:21;;;;;;;44.37;33.13;;;19.70;99.90;;;;;;5072094;28;20167;-67
2022/05/20 11:43:14;;;;;;;41.88;33.03;;;19.70;99.90;;;;;;5051043;28;20176;-66
2022/05/20 11:46:11;;;;;;;35.00;27.88;;;19.70;99.90;;;;;;5050773;28;20296;-66
2022/05/20 11:48:44;;;;;;;28.63;22.57;;;19.70;99.90;;;;;;5070875;28;20669;-66
2022/05/20 11:51:19;;;;;;;18.83;15.50;;;19.80;99.90;;;;;;5072392;28;20207;-65
2022/05/20 11:53:56;;;;;;;13.43;12.03;;;19.90;99.90;;;;;;5072837;28;20229;-66
2022/05/20 11:56:35;;;;;;;10.82;9.35;;;19.90;99.90;;;;;;5052647;28;20223;-65
2022/05/20 11:59:06;;;;;;;7.32;6.70;;;20.10;97.50;;;;;;5052955;28;20165;-67
2022/05/20 12:01:34;;;;;;;7.20;6.50;;;20.20;85.80;;;;;;5052766;28;20231;-64
2022/05/20 12:04:07;;;;;;;6.78;5.28;;;20.30;83.70;;;;;;5052359;28;20173;-66
2022/05/20 12:06:55;;;;;;;6.93;5.60;;;20.30;57.40;;;;;;5051582;28;20197;-67
2022/05/20 12:09:37;;;;;;;16.13;5.68;;;20.50;67.30;;;;;;5052457;28;20185;-65
2022/05/20 12:12:15;;;;;;;6.50;2.90;;;20.60;48.30;;;;;;5051437;28;20227;-67
2022/05/20 12:15:02;;;;;;;7.25;3.15;;;20.70;31.90;;;;;;5052739;28;20232;-66
2022/05/20 12:17:51;;;;;;;3.25;2.95;;;20.90;35.30;;;;;;5052836;28;20689;-67
2022/05/20 12:26:18;;;;;;;4.65;2.72;;;21.50;33.80;;;;;;5053712;28;20180;-67
2022/05/20 12:28:44;;;;;;;6.03;2.97;;;21.60;29.20;;;;;;5052738;28;20174;-66
2022/05/20 12:31:22;;;;;;;8.52;2.53;;;21.70;27.40;;;;;;5051974;28;20279;-67
2022/05/20 12:34:00;;;;;;;3.60;2.25;;;21.70;21.10;;;;;;5052194;28;20246;-67
2022/05/20 12:36:28;;;;;;;6.50;2.38;;;21.60;28.10;;;;;;5054905;28;20204;-68
2022/05/20 12:39:09;;;;;;;2.50;2.30;;;21.70;30.60;;;;;;5060816;28;20623;-67
2022/05/20 12:41:44;;;;;;;5.03;2.53;;;21.70;22.40;;;;;;5061660;28;20222;-67
2022/05/20 12:44:15;;;;;;;4.25;2.88;;;21.80;25.30;;;;;;5064706;28;20176;-67
2022/05/20 12:46:59;;;;;;;3.28;2.45;;;21.90;39.00;;;;;;5071916;28;20237;-67
2022/05/20 12:49:32;;;;;;;3.75;2.83;;;22.00;25.40;;;;;;5071529;28;20168;-67
2022/05/20 12:52:17;;;;;;;4.00;2.63;;;21.60;54.50;;;;;;5071998;28;20293;-67
2022/05/20 12:54:46;;;;;;;3.63;3.25;;;21.50;68.40;;;;;;5071600;28;20219;-66
2022/05/20 12:57:15;;;;;;;4.65;3.30;;;21.10;89.60;;;;;;5072019;28;20214;-67
2022/05/20 12:59:41;;;;;;;4.63;3.22;;;21.00;99.90;;;;;;5072355;28;20196;-67
2022/05/20 13:02:20;;;;;;;7.30;4.35;;;20.70;99.90;;;;;;5072020;28;20616;-66
2022/05/20 13:05:11;;;;;;;8.77;4.53;;;20.60;99.90;;;;;;5072092;28;20165;-67
2022/05/20 13:07:39;;;;;;;5.35;4.57;;;20.50;99.90;;;;;;5071088;28;20180;-67
2022/05/20 13:10:35;;;;;;;6.35;5.47;;;20.30;99.90;;;;;;5077714;28;20172;-66
2022/05/20 13:13:14;;;;;;;7.90;5.18;;;20.30;99.90;;;;;;5079206;28;20176;-67
2022/05/20 13:15:46;;;;;;;7.55;5.28;;;20.20;99.90;;;;;;5077055;28;20215;-67
2022/05/20 13:18:17;;;;;;;5.75;4.28;;;20.20;99.90;;;;;;5078186;28;20631;-67
2022/05/20 13:20:43;;;;;;;6.28;4.50;;;20.10;99.90;;;;;;5079013;28;20226;-67
2022/05/20 13:23:16;;;;;;;4.90;4.35;;;20.20;99.90;;;;;;5077920;28;20168;-67
2022/05/20 13:25:45;;;;;;;5.22;4.65;;;20.10;99.90;;;;;;5078966;28;20617;-66
2022/05/20 13:28:10;;;;;;;7.47;5.10;;;20.10;99.90;;;;;;5077439;28;20202;-67
2022/05/20 13:30:36;;;;;;;4.97;4.40;;;20.20;99.90;;;;;;5078424;28;20594;-68
2022/05/20 13:33:07;;;;;;;6.15;4.70;;;20.30;99.90;;;;;;5077862;28;20246;-67
2022/05/20 13:36:00;;;;;;;5.25;4.60;;;20.40;99.90;;;;;;5078270;28;20232;-66
2022/05/20 13:38:30;;;;;;;5.22;4.68;;;20.50;99.90;;;;;;5075931;28;20189;-66
2022/05/20 13:40:57;;;;;;;5.07;4.40;;;20.50;99.90;;;;;;5078244;28;20164;-68